createdAt,value
2023-12-05T00:00:26.534Z,0.80
2023-12-05T00:02:54.655Z,0.60
2023-12-05T00:05:22.915Z,0.60
2023-12-05T00:07:51.537Z,0.70
2023-12-05T00:10:19.773Z,0.80
2023-12-05T00:12:47.996Z,0.60
2023-12-05T00:15:16.318Z,0.60
2023-12-05T00:17:44.414Z,0.68
2023-12-05T00:20:12.757Z,0.70
2023-12-05T00:22:40.797Z,0.52
2023-12-05T00:25:10.092Z,0.40
2023-12-05T00:27:38.247Z,0.60
2023-12-05T00:30:07.154Z,0.50
2023-12-05T00:32:35.200Z,0.70
2023-12-05T00:35:03.332Z,0.57
2023-12-05T00:37:31.312Z,0.47
2023-12-05T00:39:59.422Z,0.60
2023-12-05T00:42:27.453Z,0.63
2023-12-05T00:47:59.960Z,0.30
2023-12-05T00:50:46.798Z,0.35
2023-12-05T00:53:33.229Z,0.40
2023-12-05T00:56:01.504Z,0.40
2023-12-05T00:58:29.595Z,0.40
2023-12-05T01:00:57.680Z,0.17
2023-12-05T01:03:25.961Z,0.40
2023-12-05T01:05:54.130Z,0.25
2023-12-05T01:08:22.156Z,0.50
2023-12-05T01:10:50.306Z,0.50
2023-12-05T01:13:18.387Z,0.45
2023-12-05T01:15:46.548Z,0.20
2023-12-05T01:18:14.846Z,0.40
2023-12-05T01:20:43.084Z,0.20
2023-12-05T01:23:11.272Z,0.40
2023-12-05T01:25:39.422Z,0.50
2023-12-05T01:28:07.420Z,0.20
2023-12-05T01:30:35.623Z,0.30
2023-12-05T01:33:03.970Z,0.30
2023-12-05T01:35:32.866Z,0.10
2023-12-05T01:38:00.928Z,0.15
2023-12-05T01:40:29.203Z,0.30
2023-12-05T01:42:57.468Z,0.28
2023-12-05T01:45:25.555Z,0.22
2023-12-05T01:47:53.804Z,0.28
2023-12-05T01:50:26.218Z,0.45
2023-12-05T01:52:57.879Z,0.40
2023-12-05T01:55:29.520Z,0.47
2023-12-05T01:57:58.752Z,0.45
2023-12-05T02:00:27.507Z,0.57
2023-12-05T02:02:57.143Z,0.57
2023-12-05T02:05:27.869Z,0.40
2023-12-05T02:07:56.310Z,0.22
2023-12-05T02:10:24.828Z,0.32
2023-12-05T02:12:53.099Z,0.30
2023-12-05T02:15:21.329Z,0.20
2023-12-05T02:18:04.654Z,0.30
2023-12-05T02:21:14.083Z,0.40
2023-12-05T02:24:00.421Z,0.20
2023-12-05T02:26:48.374Z,0.20
2023-12-05T02:29:16.334Z,0.20
2023-12-05T02:31:44.427Z,0.20
2023-12-05T02:34:12.731Z,0.45
2023-12-05T02:37:14.569Z,0.30
2023-12-05T02:42:17.479Z,0.30
2023-12-05T02:44:49.495Z,0.50
2023-12-05T02:50:06.306Z,0.25
2023-12-05T02:52:34.396Z,0.20
2023-12-05T02:55:02.428Z,0.30
2023-12-05T02:57:30.677Z,0.10
2023-12-05T02:59:58.970Z,0.15
2023-12-05T03:02:27.057Z,0.20
2023-12-05T03:05:13.524Z,0.10
2023-12-05T03:07:41.617Z,0.20
2023-12-05T03:10:09.773Z,0.30
2023-12-05T03:12:37.903Z,0.30
2023-12-05T03:15:06.666Z,0.03
2023-12-05T03:17:35.242Z,0.00
2023-12-05T03:20:04.193Z,0.10
2023-12-05T03:22:32.470Z,0.13
2023-12-05T03:25:00.534Z,0.20
2023-12-05T03:27:28.982Z,0.20
2023-12-05T03:29:57.434Z,0.00
2023-12-05T03:32:25.533Z,0.00
2023-12-05T03:34:53.541Z,0.10
2023-12-05T03:37:21.519Z,0.00
2023-12-05T03:39:49.666Z,0.10
2023-12-05T03:42:17.776Z,0.20
2023-12-05T03:44:45.846Z,0.10
2023-12-05T03:47:13.998Z,0.10
2023-12-05T03:49:42.065Z,0.00
2023-12-05T03:52:10.339Z,0.20
2023-12-05T03:54:38.405Z,0.20
2023-12-05T03:57:06.463Z,0.15
2023-12-05T03:59:34.883Z,0.03
2023-12-05T04:02:03.260Z,0.20
2023-12-05T04:04:31.563Z,0.13
2023-12-05T04:06:59.725Z,0.00
2023-12-05T04:09:28.173Z,0.10
2023-12-05T04:11:56.187Z,0.00
2023-12-05T04:14:24.291Z,0.03
2023-12-05T04:16:52.325Z,0.10
2023-12-05T04:19:20.340Z,0.13
2023-12-05T04:21:49.726Z,0.05
2023-12-05T04:24:17.827Z,0.10
2023-12-05T04:29:31.370Z,0.30
2023-12-05T04:32:00.674Z,0.10
2023-12-05T04:34:28.848Z,0.20
2023-12-05T04:36:56.897Z,0.10
2023-12-05T04:39:25.459Z,0.17
2023-12-05T04:42:12.302Z,0.17
2023-12-05T04:44:40.378Z,0.20
2023-12-05T04:47:08.526Z,0.25
2023-12-05T04:49:36.651Z,0.10
2023-12-05T04:52:05.189Z,0.03
2023-12-05T04:54:33.300Z,0.10
2023-12-05T04:57:01.300Z,0.10
2023-12-05T04:59:29.431Z,0.20
2023-12-05T05:01:57.580Z,0.15
2023-12-05T05:04:25.738Z,0.10
2023-12-05T05:06:54.031Z,0.10
2023-12-05T05:09:22.202Z,0.00
2023-12-05T05:11:50.200Z,0.00
2023-12-05T05:14:18.356Z,0.00
2023-12-05T05:16:46.510Z,0.10
2023-12-05T05:19:33.484Z,0.20
2023-12-05T05:22:20.202Z,0.32
2023-12-05T05:24:48.603Z,0.00
2023-12-05T05:27:35.493Z,0.17
2023-12-05T05:30:03.903Z,0.10
2023-12-05T05:32:32.080Z,0.10
2023-12-05T05:35:00.179Z,0.15
2023-12-05T05:37:28.195Z,0.20
2023-12-05T05:39:56.293Z,0.22
2023-12-05T05:42:24.407Z,0.10
2023-12-05T05:44:52.530Z,0.17
2023-12-05T05:47:20.491Z,0.20
2023-12-05T05:49:49.174Z,0.08
2023-12-05T05:52:17.303Z,0.20
2023-12-05T05:54:45.439Z,0.30
2023-12-05T05:57:13.511Z,0.20
2023-12-05T05:59:44.468Z,0.30
2023-12-05T06:02:15.975Z,0.10
2023-12-05T06:04:44.400Z,0.15
2023-12-05T06:07:12.478Z,0.20
2023-12-05T06:09:40.630Z,0.10
2023-12-05T06:12:27.961Z,0.10
2023-12-05T06:14:56.124Z,0.20
2023-12-05T06:17:24.133Z,0.20
2023-12-05T06:22:37.478Z,0.20
2023-12-05T06:25:06.271Z,0.22
2023-12-05T06:27:34.438Z,0.30
2023-12-05T06:30:12.794Z,0.40
2023-12-05T06:32:45.795Z,0.10
2023-12-05T06:35:14.035Z,0.30
2023-12-05T06:37:42.054Z,0.10
2023-12-05T06:40:10.615Z,0.20
2023-12-05T06:42:39.325Z,0.20
2023-12-05T06:45:08.100Z,0.00
2023-12-05T06:47:36.152Z,0.22
2023-12-05T06:50:06.807Z,0.22
2023-12-05T06:52:34.870Z,0.10
2023-12-05T06:55:03.033Z,0.20
2023-12-05T06:57:31.301Z,0.30
2023-12-05T06:59:59.580Z,0.17
2023-12-05T07:02:28.022Z,0.10
2023-12-05T07:04:59.197Z,0.10
2023-12-05T07:07:27.999Z,0.30
2023-12-05T07:09:56.282Z,0.15
2023-12-05T07:12:24.380Z,0.03
2023-12-05T07:14:52.685Z,0.20
2023-12-05T07:17:20.765Z,0.10
2023-12-05T07:20:08.166Z,0.20
2023-12-05T07:22:37.218Z,0.10
2023-12-05T07:25:05.930Z,0.38
2023-12-05T07:27:35.364Z,0.20
2023-12-05T07:30:04.921Z,0.20
2023-12-05T07:32:33.217Z,0.20
2023-12-05T07:35:01.467Z,0.10
2023-12-05T07:37:29.594Z,0.15
2023-12-05T07:39:58.295Z,0.30
2023-12-05T07:42:26.451Z,0.05
2023-12-05T07:44:54.471Z,0.10
2023-12-05T07:47:25.292Z,0.25
2023-12-05T07:49:53.260Z,0.10
2023-12-05T07:52:21.429Z,0.30
2023-12-05T07:54:49.611Z,0.30
2023-12-05T07:57:23.612Z,0.10
2023-12-05T07:59:51.749Z,0.22
2023-12-05T08:02:19.850Z,0.28
2023-12-05T08:05:07.365Z,0.13
2023-12-05T08:07:35.554Z,0.30
2023-12-05T08:10:03.847Z,0.35
2023-12-05T08:12:32.054Z,0.20
2023-12-05T08:15:00.351Z,0.10
2023-12-05T08:17:28.636Z,0.30
2023-12-05T08:19:56.882Z,0.22
2023-12-05T08:22:26.713Z,0.30
2023-12-05T08:24:57.755Z,0.17
2023-12-05T08:27:25.807Z,0.30
2023-12-05T08:29:53.773Z,0.20
2023-12-05T08:32:21.871Z,0.00
2023-12-05T08:34:50.552Z,0.10
2023-12-05T08:37:18.724Z,0.32
2023-12-05T08:39:46.762Z,0.30
2023-12-05T08:42:14.858Z,0.15
2023-12-05T08:44:44.341Z,0.10
2023-12-05T08:47:12.973Z,0.30
2023-12-05T08:49:41.730Z,0.17
2023-12-05T08:52:09.817Z,0.50
2023-12-05T08:54:37.936Z,0.45
2023-12-05T08:57:06.288Z,0.17
2023-12-05T08:59:34.240Z,0.20
2023-12-05T09:02:02.237Z,0.20
2023-12-05T09:04:30.556Z,0.20
2023-12-05T09:06:58.780Z,0.20
2023-12-05T09:09:26.986Z,0.30
2023-12-05T09:11:55.107Z,0.15
2023-12-05T09:14:23.742Z,0.20
2023-12-05T09:16:51.839Z,0.40
2023-12-05T09:19:21.172Z,0.28
2023-12-05T09:21:49.396Z,0.50
2023-12-05T09:24:18.206Z,0.15
2023-12-05T09:26:46.393Z,0.17
2023-12-05T09:29:14.560Z,0.30
2023-12-05T09:31:42.576Z,0.22
2023-12-05T09:34:10.707Z,0.20
2023-12-05T09:36:38.907Z,0.20
2023-12-05T09:39:07.005Z,0.20
2023-12-05T09:41:42.337Z,0.17
2023-12-05T09:44:10.481Z,0.20
2023-12-05T09:46:47.348Z,0.17
2023-12-05T09:52:04.712Z,0.17
2023-12-05T09:54:53.302Z,0.30
2023-12-05T09:57:21.613Z,0.40
2023-12-05T09:59:49.942Z,0.30
2023-12-05T10:02:28.209Z,0.28
2023-12-05T10:13:40.806Z,0.10
2023-12-05T10:16:12.063Z,0.28
2023-12-05T10:18:41.713Z,0.30
2023-12-05T10:21:10.090Z,0.40
2023-12-05T10:23:38.888Z,0.38
2023-12-05T10:26:07.121Z,1.15
2023-12-05T10:28:50.030Z,0.60
2023-12-05T10:31:19.689Z,0.80
2023-12-05T10:33:49.892Z,1.23
2023-12-05T10:36:18.806Z,1.38
2023-12-05T10:38:47.826Z,1.33
2023-12-05T10:41:24.435Z,1.17
2023-12-05T10:43:53.548Z,0.90
2023-12-05T10:46:21.922Z,0.60
2023-12-05T10:48:50.728Z,0.40
2023-12-05T10:51:19.207Z,0.75
2023-12-05T10:54:06.689Z,0.30
2023-12-05T10:56:34.887Z,0.40
2023-12-05T11:01:51.211Z,0.35
2023-12-05T11:04:19.411Z,0.35
2023-12-05T11:06:47.575Z,0.35
2023-12-05T11:09:16.119Z,0.40
2023-12-05T11:11:52.060Z,0.30
2023-12-05T11:14:22.950Z,0.10
2023-12-05T11:16:52.706Z,0.20
2023-12-05T11:19:28.929Z,0.20
2023-12-05T11:22:21.882Z,0.15
2023-12-05T11:25:13.379Z,0.10
2023-12-05T11:27:53.079Z,0.20
2023-12-05T11:30:50.134Z,0.25
2023-12-05T11:33:39.802Z,0.10
2023-12-05T11:36:46.758Z,0.20
2023-12-05T11:39:15.383Z,0.13
2023-12-05T11:42:13.184Z,0.30
2023-12-05T11:44:42.687Z,0.10
2023-12-05T11:47:34.037Z,0.40
2023-12-05T11:50:06.016Z,0.08
2023-12-05T11:52:40.931Z,0.35
2023-12-05T11:55:12.111Z,0.30
2023-12-05T11:57:41.879Z,0.20
2023-12-05T12:00:13.794Z,0.10
2023-12-05T12:02:46.670Z,0.10
2023-12-05T12:05:15.841Z,0.20
2023-12-05T12:07:54.246Z,0.38
2023-12-05T12:10:22.570Z,0.38
2023-12-05T12:12:53.435Z,0.30
2023-12-05T12:15:25.361Z,0.50
2023-12-05T12:18:12.410Z,0.20
2023-12-05T12:20:40.633Z,0.30
2023-12-05T12:23:08.956Z,0.40
2023-12-05T12:25:48.615Z,0.30
2023-12-05T12:28:31.936Z,0.40
2023-12-05T12:31:00.968Z,0.30
2023-12-05T12:33:48.278Z,0.30
2023-12-05T12:36:19.908Z,0.17
2023-12-05T12:41:33.409Z,0.35
2023-12-05T12:44:01.596Z,0.30
2023-12-05T12:46:29.841Z,0.15
2023-12-05T12:48:59.950Z,0.50
2023-12-05T12:51:28.278Z,0.52
2023-12-05T12:53:56.726Z,0.28
2023-12-05T12:56:25.250Z,0.20
2023-12-05T12:58:53.293Z,0.30
2023-12-05T13:01:40.578Z,0.15
2023-12-05T13:04:13.301Z,0.22
2023-12-05T13:06:48.726Z,0.38
2023-12-05T13:09:27.129Z,0.25
2023-12-05T13:11:55.244Z,0.22
2023-12-05T13:14:23.896Z,0.10
2023-12-05T13:16:52.000Z,0.15
2023-12-05T13:19:23.744Z,0.32
2023-12-05T13:21:52.653Z,0.10
2023-12-05T13:24:22.726Z,0.30
2023-12-05T13:26:51.943Z,0.30
2023-12-05T13:29:20.837Z,0.20
2023-12-05T13:31:49.120Z,0.20
2023-12-05T13:34:17.559Z,0.30
2023-12-05T13:36:47.113Z,0.17
2023-12-05T13:39:16.929Z,0.20
2023-12-05T13:41:45.134Z,0.30
2023-12-05T13:44:13.211Z,0.10
2023-12-05T13:46:41.437Z,0.25
2023-12-05T13:49:09.964Z,0.05
2023-12-05T13:54:23.972Z,0.32
2023-12-05T13:56:52.744Z,0.20
2023-12-05T13:59:20.748Z,0.30
2023-12-05T14:01:49.456Z,0.20
2023-12-05T14:04:19.003Z,0.30
2023-12-05T14:06:47.338Z,0.20
2023-12-05T14:09:16.252Z,0.40
2023-12-05T14:11:45.494Z,0.30
2023-12-05T14:14:15.759Z,0.30
2023-12-05T14:16:43.845Z,0.40
2023-12-05T14:19:12.100Z,0.20
2023-12-05T14:21:40.360Z,0.10
2023-12-05T14:24:08.481Z,0.30
2023-12-05T14:26:55.150Z,0.47
2023-12-05T14:29:23.609Z,0.35
2023-12-05T14:31:51.618Z,0.10
2023-12-05T14:34:19.795Z,0.22
2023-12-05T14:36:48.001Z,0.10
2023-12-05T14:39:18.755Z,0.40
2023-12-05T14:41:47.198Z,0.10
2023-12-05T14:44:15.393Z,0.30
2023-12-05T14:46:43.423Z,0.20
2023-12-05T14:49:11.598Z,0.30
2023-12-05T14:51:40.376Z,0.05
2023-12-05T14:54:08.370Z,0.20
2023-12-05T14:56:36.399Z,0.32
2023-12-05T14:59:04.527Z,0.03
2023-12-05T15:01:51.302Z,0.10
2023-12-05T15:04:20.156Z,0.20
2023-12-05T15:09:34.989Z,0.30
2023-12-05T15:12:04.632Z,0.30
2023-12-05T15:14:32.661Z,0.32
2023-12-05T15:17:00.850Z,0.10
2023-12-05T15:19:30.179Z,0.25
2023-12-05T15:21:58.450Z,0.30
2023-12-05T15:24:44.985Z,0.30
2023-12-05T15:27:13.155Z,0.30
2023-12-05T15:29:43.281Z,0.20
2023-12-05T15:32:11.910Z,0.30
2023-12-05T15:34:39.888Z,0.22
2023-12-05T15:37:08.107Z,0.00
2023-12-05T15:39:40.971Z,0.40
2023-12-05T15:42:09.437Z,0.32
2023-12-05T15:44:37.912Z,0.30
2023-12-05T15:47:08.746Z,0.08
2023-12-05T15:49:37.003Z,0.30
2023-12-05T15:52:05.414Z,0.30
2023-12-05T15:54:37.513Z,0.28
2023-12-05T15:57:06.030Z,0.20
2023-12-05T15:59:33.978Z,0.20
2023-12-05T16:02:02.138Z,0.17
2023-12-05T16:04:30.334Z,0.30
2023-12-05T16:09:43.808Z,0.32
2023-12-05T16:12:11.943Z,0.20
2023-12-05T16:14:40.603Z,0.30
2023-12-05T16:17:08.695Z,0.40
2023-12-05T16:19:38.860Z,0.30
2023-12-05T16:22:25.522Z,0.20
2023-12-05T16:24:53.816Z,0.30
2023-12-05T16:27:22.221Z,0.22
2023-12-05T16:29:50.512Z,0.32
2023-12-05T16:32:19.452Z,0.13
2023-12-05T16:34:47.658Z,0.20
2023-12-05T16:37:15.940Z,0.35
2023-12-05T16:39:44.855Z,0.30
2023-12-05T16:42:12.880Z,0.22
2023-12-05T16:44:45.161Z,0.20
2023-12-05T16:47:16.215Z,0.57
2023-12-05T16:49:44.440Z,0.30
2023-12-05T16:52:12.522Z,0.15
2023-12-05T16:54:42.121Z,0.20
2023-12-05T16:57:10.793Z,0.50
2023-12-05T16:59:38.848Z,0.20
2023-12-05T17:02:07.484Z,0.20
2023-12-05T17:04:36.055Z,0.25
2023-12-05T17:07:04.313Z,0.20
2023-12-05T17:09:33.005Z,0.38
2023-12-05T17:12:01.862Z,0.20
2023-12-05T17:14:30.916Z,0.30
2023-12-05T17:17:03.316Z,0.30
2023-12-05T17:19:31.503Z,0.30
2023-12-05T17:21:59.831Z,0.30
2023-12-05T17:24:27.931Z,0.40
2023-12-05T17:26:56.037Z,0.30
2023-12-05T17:29:24.809Z,0.03
2023-12-05T17:31:52.811Z,0.20
2023-12-05T17:34:20.949Z,0.60
2023-12-05T17:36:49.057Z,0.50
2023-12-05T17:39:35.743Z,0.20
2023-12-05T17:42:04.069Z,0.50
2023-12-05T17:44:32.045Z,0.40
2023-12-05T17:46:59.973Z,0.10
2023-12-05T17:49:28.175Z,0.38
2023-12-05T17:51:56.168Z,0.10
2023-12-05T17:54:24.220Z,0.38
2023-12-05T17:56:52.253Z,0.32
2023-12-05T17:59:24.686Z,0.28
2023-12-05T18:01:53.058Z,0.20
2023-12-05T18:04:40.401Z,0.30
2023-12-05T18:07:50.758Z,0.35
2023-12-05T18:09:56.717Z,0.50
2023-12-05T18:12:24.795Z,0.60
2023-12-05T18:14:53.565Z,0.52
2023-12-05T18:17:21.962Z,0.40
2023-12-05T18:19:50.982Z,0.50
2023-12-05T18:22:20.582Z,0.38
2023-12-05T18:24:48.653Z,0.30
2023-12-05T18:27:17.137Z,0.43
2023-12-05T18:29:45.816Z,0.47
2023-12-05T18:32:14.764Z,0.10
2023-12-05T18:34:42.897Z,0.25
2023-12-05T18:37:11.062Z,0.40
2023-12-05T18:39:39.138Z,0.40
2023-12-05T18:42:07.705Z,0.60
2023-12-05T18:44:35.902Z,0.47
2023-12-05T18:47:04.167Z,0.38
2023-12-05T18:49:32.940Z,0.50
2023-12-05T18:52:02.557Z,0.55
2023-12-05T18:54:30.592Z,0.40
2023-12-05T18:56:58.816Z,1.10
2023-12-05T18:59:26.982Z,0.50
2023-12-05T19:01:55.263Z,0.60
2023-12-05T19:04:23.454Z,0.57
2023-12-05T19:06:51.456Z,0.70
2023-12-05T19:09:19.466Z,0.88
2023-12-05T19:11:48.269Z,1.05
2023-12-05T19:14:35.839Z,0.63
2023-12-05T19:17:07.031Z,1.08
2023-12-05T19:19:35.227Z,0.85
2023-12-05T19:22:06.223Z,0.80
2023-12-05T19:24:34.248Z,1.00
2023-12-05T19:27:02.390Z,1.00
2023-12-05T19:29:30.421Z,0.90
2023-12-05T19:31:58.599Z,0.98
2023-12-05T19:34:35.078Z,0.95
2023-12-05T19:37:08.755Z,1.20
2023-12-05T19:39:37.030Z,1.17
2023-12-05T19:42:05.331Z,0.90
2023-12-05T19:44:52.070Z,0.90
2023-12-05T19:47:23.269Z,1.30
2023-12-05T19:49:52.110Z,0.85
2023-12-05T19:52:20.203Z,1.13
2023-12-05T19:54:49.111Z,1.00
2023-12-05T19:57:17.220Z,1.30
2023-12-05T19:59:47.983Z,1.55
2023-12-05T20:02:16.383Z,0.85
2023-12-05T20:04:44.509Z,0.98
2023-12-05T20:07:13.608Z,0.80
2023-12-05T20:09:41.970Z,0.70
2023-12-05T20:12:10.058Z,0.88
2023-12-05T20:14:38.244Z,0.65
2023-12-05T20:17:06.388Z,0.80
2023-12-05T20:19:34.697Z,0.70
2023-12-05T20:24:48.131Z,0.60
2023-12-05T20:27:16.150Z,0.73
2023-12-05T20:29:44.988Z,0.70
2023-12-05T20:32:13.110Z,0.50
2023-12-05T20:34:41.840Z,0.70
2023-12-05T20:37:10.542Z,0.73
2023-12-05T20:39:40.804Z,0.90
2023-12-05T20:42:10.372Z,0.70
2023-12-05T20:44:40.147Z,0.73
2023-12-05T20:47:08.891Z,0.70
2023-12-05T20:49:37.130Z,0.88
2023-12-05T20:52:05.706Z,0.95
2023-12-05T20:54:33.730Z,0.90
2023-12-05T20:57:01.988Z,1.15
2023-12-05T20:59:29.979Z,1.00
2023-12-05T21:01:58.485Z,1.10
2023-12-05T21:04:26.761Z,1.20
2023-12-05T21:06:55.343Z,1.10
2023-12-05T21:09:23.500Z,1.52
2023-12-05T21:12:10.277Z,1.00
2023-12-05T21:14:38.313Z,1.05
2023-12-05T21:17:06.338Z,1.05
2023-12-05T21:19:34.838Z,1.33
2023-12-05T21:22:02.975Z,1.10
2023-12-05T21:24:34.125Z,1.20
2023-12-05T21:27:03.836Z,1.45
2023-12-05T21:29:31.831Z,1.30
2023-12-05T21:31:59.901Z,1.15
2023-12-05T21:34:30.056Z,1.38
2023-12-05T21:36:58.250Z,1.30
2023-12-05T21:39:32.657Z,1.33
2023-12-05T21:42:00.978Z,1.55
2023-12-05T21:44:29.073Z,1.42
2023-12-05T21:46:57.162Z,1.40
2023-12-05T21:49:25.321Z,1.48
2023-12-05T21:52:12.046Z,1.50
2023-12-05T21:54:40.312Z,1.98
2023-12-05T21:57:08.356Z,1.80
2023-12-05T21:59:36.484Z,1.70
2023-12-05T22:02:04.936Z,1.90
2023-12-05T22:04:34.621Z,1.63
2023-12-05T22:07:02.928Z,1.67
2023-12-05T22:09:31.042Z,1.80
2023-12-05T22:11:59.169Z,1.73
2023-12-05T22:14:27.191Z,1.98
2023-12-05T22:16:55.246Z,1.48
2023-12-05T22:19:23.523Z,1.80
2023-12-05T22:21:51.583Z,1.75
2023-12-05T22:24:28.634Z,1.33
2023-12-05T22:27:00.683Z,1.30
2023-12-05T22:29:28.670Z,1.73
2023-12-05T22:31:57.732Z,1.38
2023-12-05T22:34:44.397Z,1.35
2023-12-05T22:37:12.504Z,1.38
2023-12-05T22:39:41.374Z,1.20
2023-12-05T22:42:10.266Z,1.15
2023-12-05T22:44:42.461Z,1.40
2023-12-05T22:47:10.859Z,1.13
2023-12-05T22:49:38.978Z,1.33
2023-12-05T22:52:07.197Z,1.10
2023-12-05T22:54:35.438Z,1.20
2023-12-05T22:57:03.974Z,1.52
2023-12-05T22:59:32.071Z,1.35
2023-12-05T23:02:00.169Z,1.13
2023-12-05T23:04:28.658Z,1.10
2023-12-05T23:06:57.209Z,1.17
2023-12-05T23:09:25.364Z,1.13
2023-12-05T23:11:53.458Z,1.00
2023-12-05T23:14:21.487Z,0.75
2023-12-05T23:16:50.031Z,0.77
2023-12-05T23:19:20.288Z,0.98
2023-12-05T23:21:48.588Z,0.70
2023-12-05T23:24:35.589Z,0.70
2023-12-05T23:27:03.897Z,0.75
2023-12-05T23:29:31.996Z,0.80
2023-12-05T23:32:00.108Z,0.60
2023-12-05T23:34:28.220Z,0.90
2023-12-05T23:36:56.359Z,0.30
2023-12-05T23:39:24.500Z,0.70
2023-12-05T23:41:52.520Z,0.55
2023-12-05T23:44:22.798Z,1.25
2023-12-05T23:46:51.368Z,0.70
2023-12-05T23:49:19.499Z,0.57
2023-12-05T23:51:47.652Z,0.90
2023-12-05T23:54:15.744Z,0.60
2023-12-05T23:56:43.918Z,0.75
2023-12-05T23:59:12.416Z,0.60
